Time;durP1;ratioP1;P1;durP2;ratioP2;P2;SDS_P1;SDS_P2;PMS_P1;PMS_P2;Temp;Humidity;BMP_temperature;BMP_pressure;BME280_temperature;BME280_humidity;BME280_pressure;Samples;Min_cycle;Max_cycle;Signal;HPM_P1;HPM_P2
2023/01/14 00:01:07;;;;;;;33.20;6.80;;;;;;;;;;5025772;28;20090;-77
2023/01/14 00:03:33;;;;;;;30.13;5.47;;;;;;;;;;5033373;28;20037;-77
2023/01/14 00:06:00;;;;;;;33.90;5.37;;;;;;;;;;5028234;28;20043;-76
2023/01/14 00:08:26;;;;;;;35.50;5.10;;;;;;;;;;5042681;28;20034;-77
2023/01/14 00:10:55;;;;;;;27.73;5.40;;;;;;;;;;5032349;28;20474;-77
2023/01/14 00:13:21;;;;;;;33.90;5.00;;;;;;;;;;5049025;28;20037;-76
2023/01/14 00:15:55;;;;;;;28.67;5.43;;;;;;;;;;5042883;28;21675;-77
2023/01/14 00:18:21;;;;;;;29.77;5.20;;;;;;;;;;5048023;28;20043;-77
2023/01/14 00:21:17;;;;;;;28.50;4.73;;;;;;;;;;5028587;28;20374;-77
2023/01/14 00:23:43;;;;;;;35.03;5.07;;;;;;;;;;5036877;28;20152;-74
2023/01/14 00:26:09;;;;;;;32.27;5.83;;;;;;;;;;5044815;28;20930;-76
2023/01/14 00:28:35;;;;;;;36.87;6.43;;;;;;;;;;5029655;28;20030;-76
2023/01/14 00:31:06;;;;;;;22.37;4.40;;;;;;;;;;5042064;28;20029;-77
2023/01/14 00:33:32;;;;;;;35.33;5.63;;;;;;;;;;5043126;28;20106;-77
2023/01/14 00:35:58;;;;;;;27.43;4.60;;;;;;;;;;5049054;28;20033;-76
2023/01/14 00:38:24;;;;;;;26.57;4.80;;;;;;;;;;5025435;28;20099;-77
2023/01/14 00:40:50;;;;;;;31.93;5.30;;;;;;;;;;5048398;28;20047;-77
2023/01/14 00:43:16;;;;;;;29.50;5.10;;;;;;;;;;5032345;28;20112;-77
2023/01/14 00:45:44;;;;;;;39.03;6.03;;;;;;;;;;5024599;28;20041;-78
2023/01/14 00:48:10;;;;;;;28.13;4.67;;;;;;;;;;5042852;28;20033;-76
2023/01/14 00:50:38;;;;;;;31.93;4.53;;;;;;;;;;5047625;28;20033;-77
2023/01/14 00:53:04;;;;;;;29.73;4.87;;;;;;;;;;5042651;28;20038;-77
2023/01/14 00:55:30;;;;;;;41.97;5.40;;;;;;;;;;5047157;28;20033;-76
2023/01/14 00:57:56;;;;;;;26.63;5.03;;;;;;;;;;5025326;28;20026;-77
2023/01/14 01:00:23;;;;;;;29.87;4.87;;;;;;;;;;5041387;28;20148;-77
2023/01/14 01:02:49;;;;;;;35.40;5.57;;;;;;;;;;5047884;28;20083;-75
2023/01/14 01:05:15;;;;;;;33.90;6.30;;;;;;;;;;5024293;28;20037;-76
2023/01/14 01:07:42;;;;;;;31.47;4.63;;;;;;;;;;5046202;28;20179;-77
2023/01/14 01:10:08;;;;;;;25.70;5.37;;;;;;;;;;5041646;28;20029;-77
2023/01/14 01:12:34;;;;;;;26.50;6.07;;;;;;;;;;5041863;28;20091;-77
2023/01/14 01:15:00;;;;;;;33.30;5.53;;;;;;;;;;5027390;28;20029;-76
2023/01/14 01:17:28;;;;;;;26.70;5.23;;;;;;;;;;5025181;28;20044;-76
2023/01/14 01:19:57;;;;;;;31.60;5.57;;;;;;;;;;5042515;28;20094;-77
2023/01/14 01:22:23;;;;;;;31.67;4.63;;;;;;;;;;5047517;28;20654;-76
2023/01/14 01:24:50;;;;;;;26.83;4.87;;;;;;;;;;5024763;28;20041;-77
2023/01/14 01:27:19;;;;;;;24.20;4.23;;;;;;;;;;5042608;28;20520;-77
2023/01/14 01:29:45;;;;;;;27.80;5.20;;;;;;;;;;5023628;28;20036;-76
2023/01/14 01:32:11;;;;;;;36.83;6.60;;;;;;;;;;5026343;28;20033;-77
2023/01/14 01:34:39;;;;;;;27.27;4.57;;;;;;;;;;5032355;28;20118;-74
2023/01/14 01:37:05;;;;;;;28.60;5.47;;;;;;;;;;5041870;28;20117;-77
2023/01/14 01:39:31;;;;;;;23.87;4.77;;;;;;;;;;5039207;28;20116;-77
2023/01/14 01:41:57;;;;;;;20.30;4.40;;;;;;;;;;5047895;28;20048;-78
2023/01/14 01:44:23;;;;;;;29.73;4.40;;;;;;;;;;5028623;28;20029;-78
2023/01/14 01:46:49;;;;;;;25.90;4.50;;;;;;;;;;5041317;28;20036;-76
2023/01/14 01:49:17;;;;;;;29.53;5.13;;;;;;;;;;5042812;28;20025;-76
2023/01/14 01:51:49;;;;;;;30.10;5.40;;;;;;;;;;5039719;28;20033;-76
2023/01/14 01:54:16;;;;;;;28.55;4.57;;;;;;;;;;5046481;28;20069;-77
2023/01/14 01:56:46;;;;;;;33.80;4.90;;;;;;;;;;5032511;28;20040;-77
2023/01/14 01:59:12;;;;;;;26.30;4.20;;;;;;;;;;5030219;28;20078;-77
2023/01/14 02:01:39;;;;;;;32.20;5.70;;;;;;;;;;5050919;28;20049;-76
2023/01/14 02:04:05;;;;;;;31.80;5.50;;;;;;;;;;5042591;28;20032;-77
2023/01/14 02:06:31;;;;;;;33.67;6.13;;;;;;;;;;5026412;28;20401;-76
2023/01/14 02:08:58;;;;;;;35.73;5.93;;;;;;;;;;5028407;28;20097;-76
2023/01/14 02:11:23;;;;;;;32.20;5.77;;;;;;;;;;5030771;28;20053;-77
2023/01/14 02:13:53;;;;;;;41.77;5.03;;;;;;;;;;5030080;28;20631;-77
2023/01/14 02:16:18;;;;;;;27.80;4.10;;;;;;;;;;5036220;28;20039;-77
2023/01/14 02:18:47;;;;;;;34.07;5.30;;;;;;;;;;5026918;28;20026;-76
2023/01/14 02:21:19;;;;;;;31.13;5.13;;;;;;;;;;5041270;28;20029;-77
2023/01/14 02:23:45;;;;;;;27.20;5.00;;;;;;;;;;5023648;28;20042;-77
2023/01/14 02:26:14;;;;;;;27.07;4.37;;;;;;;;;;5046104;28;20041;-76
2023/01/14 02:28:46;;;;;;;30.10;5.70;;;;;;;;;;5039205;28;20033;-77
2023/01/14 02:31:31;;;;;;;27.15;4.88;;;;;;;;;;5024102;28;20059;-75
2023/01/14 02:34:04;;;;;;;28.80;4.87;;;;;;;;;;5045802;28;20087;-77
2023/01/14 02:36:34;;;;;;;27.97;4.33;;;;;;;;;;5025871;28;20040;-78
2023/01/14 02:39:10;;;;;;;23.03;4.60;;;;;;;;;;5041581;28;20041;-76
2023/01/14 02:44:34;;;;;;;31.97;4.80;;;;;;;;;;5030551;28;20052;-77
2023/01/14 02:47:11;;;;;;;15.60;3.50;;;;;;;;;;5044669;28;20033;-78
2023/01/14 02:49:39;;;;;;;25.60;4.17;;;;;;;;;;5045453;28;20021;-77
2023/01/14 02:52:06;;;;;;;29.53;5.60;;;;;;;;;;5045698;28;20029;-77
2023/01/14 02:54:32;;;;;;;37.23;5.67;;;;;;;;;;5029524;28;20041;-77
2023/01/14 02:57:03;;;;;;;23.43;4.50;;;;;;;;;;5030518;28;20033;-76
2023/01/14 02:59:29;;;;;;;22.07;3.90;;;;;;;;;;5030713;28;20434;-77
2023/01/14 03:02:04;;;;;;;22.40;4.17;;;;;;;;;;5025634;28;20037;-76
2023/01/14 03:04:39;;;;;;;28.23;5.07;;;;;;;;;;5038158;28;20075;-76
2023/01/14 03:07:13;;;;;;;31.17;5.20;;;;;;;;;;5027809;28;20030;-77
2023/01/14 03:09:52;;;;;;;32.27;4.60;;;;;;;;;;5029427;28;21588;-76
2023/01/14 03:12:32;;;;;;;24.33;4.43;;;;;;;;;;5022970;28;20029;-78
2023/01/14 03:15:03;;;;;;;25.07;4.30;;;;;;;;;;5030111;28;20030;-78
2023/01/14 03:17:37;;;;;;;24.83;4.13;;;;;;;;;;5029800;28;20470;-77
2023/01/14 03:20:12;;;;;;;21.10;3.77;;;;;;;;;;5045139;28;20025;-76
2023/01/14 03:22:41;;;;;;;32.50;6.40;;;;;;;;;;5029392;28;20048;-75
2023/01/14 03:25:08;;;;;;;31.30;4.27;;;;;;;;;;5040776;28;20124;-77
2023/01/14 03:27:36;;;;;;;20.97;3.63;;;;;;;;;;5038419;28;20048;-75
2023/01/14 03:30:07;;;;;;;30.00;5.43;;;;;;;;;;5023864;28;20043;-76
2023/01/14 03:32:38;;;;;;;21.37;4.83;;;;;;;;;;5039430;28;20041;-77
2023/01/14 03:35:06;;;;;;;26.37;4.97;;;;;;;;;;5040080;28;20030;-76
2023/01/14 03:37:33;;;;;;;24.27;5.17;;;;;;;;;;5027447;28;20093;-77
2023/01/14 03:40:00;;;;;;;29.23;4.80;;;;;;;;;;5023247;28;20044;-78
2023/01/14 03:42:29;;;;;;;32.00;4.93;;;;;;;;;;5021408;28;20025;-77
2023/01/14 03:45:10;;;;;;;24.67;3.80;;;;;;;;;;5044994;28;20172;-77
2023/01/14 03:47:37;;;;;;;26.40;3.60;;;;;;;;;;5039705;28;20362;-77
2023/01/14 03:50:06;;;;;;;17.80;3.83;;;;;;;;;;5044761;28;20033;-77
2023/01/14 03:52:42;;;;;;;34.53;4.80;;;;;;;;;;5049018;28;20037;-77
2023/01/14 03:55:16;;;;;;;38.43;5.00;;;;;;;;;;5027252;28;20065;-77
2023/01/14 03:57:59;;;;;;;23.13;4.30;;;;;;;;;;5032957;28;20125;-76
2023/01/14 04:00:38;;;;;;;27.67;4.18;;;;;;;;;;5042800;28;20040;-75
2023/01/14 04:03:06;;;;;;;31.93;3.90;;;;;;;;;;5048644;28;20060;-76
2023/01/14 04:05:32;;;;;;;32.03;4.13;;;;;;;;;;5030981;28;20042;-77
2023/01/14 04:07:59;;;;;;;33.60;3.60;;;;;;;;;;5026465;28;20032;-78
2023/01/14 04:10:25;;;;;;;25.90;4.17;;;;;;;;;;5044137;28;20071;-76
2023/01/14 04:15:35;;;;;;;20.40;3.60;;;;;;;;;;5035201;28;20931;-77
2023/01/14 04:18:02;;;;;;;22.70;4.00;;;;;;;;;;5048325;28;20037;-78
2023/01/14 04:20:28;;;;;;;23.30;3.93;;;;;;;;;;5049696;28;20033;-77
2023/01/14 04:22:56;;;;;;;27.00;5.33;;;;;;;;;;5046745;28;20941;-77
2023/01/14 04:25:22;;;;;;;24.30;4.60;;;;;;;;;;5031901;28;20039;-77
2023/01/14 04:27:51;;;;;;;28.70;4.80;;;;;;;;;;5048794;28;20025;-77
2023/01/14 04:30:17;;;;;;;22.27;4.00;;;;;;;;;;5042670;28;20087;-75
2023/01/14 04:32:45;;;;;;;21.13;3.90;;;;;;;;;;5048935;28;20040;-76
2023/01/14 04:35:11;;;;;;;17.43;3.70;;;;;;;;;;5032785;28;20033;-78
2023/01/14 04:37:37;;;;;;;35.03;4.93;;;;;;;;;;5044573;28;20027;-77
2023/01/14 04:40:03;;;;;;;28.47;5.13;;;;;;;;;;5044147;28;20029;-76
2023/01/14 04:42:31;;;;;;;19.37;3.37;;;;;;;;;;5044841;28;20064;-77
2023/01/14 04:44:59;;;;;;;22.70;4.30;;;;;;;;;;5024853;28;20040;-77
2023/01/14 04:47:25;;;;;;;28.30;4.83;;;;;;;;;;5026816;28;20029;-77
2023/01/14 04:49:51;;;;;;;23.73;4.60;;;;;;;;;;5047570;28;20044;-77
2023/01/14 04:52:17;;;;;;;30.47;5.17;;;;;;;;;;5032805;28;20058;-77
2023/01/14 04:54:43;;;;;;;32.33;4.47;;;;;;;;;;5031855;28;20047;-77
2023/01/14 04:57:09;;;;;;;23.30;4.00;;;;;;;;;;5044076;28;20033;-77
2023/01/14 04:59:35;;;;;;;28.57;4.57;;;;;;;;;;5052474;28;20041;-75
2023/01/14 05:02:01;;;;;;;25.63;4.77;;;;;;;;;;5041283;28;20033;-77
2023/01/14 05:04:30;;;;;;;29.60;4.33;;;;;;;;;;5033166;28;20030;-75
2023/01/14 05:07:01;;;;;;;24.57;3.93;;;;;;;;;;5027561;28;20163;-76
2023/01/14 05:09:27;;;;;;;24.40;5.77;;;;;;;;;;5030926;28;20029;-77
2023/01/14 05:11:53;;;;;;;32.33;4.90;;;;;;;;;;5047204;28;20033;-76
2023/01/14 05:14:19;;;;;;;24.33;4.10;;;;;;;;;;5031973;28;20057;-76
2023/01/14 05:16:45;;;;;;;21.83;3.70;;;;;;;;;;5032736;28;20049;-77
2023/01/14 05:19:11;;;;;;;18.23;4.03;;;;;;;;;;5040667;28;20163;-77
2023/01/14 05:21:37;;;;;;;26.60;4.37;;;;;;;;;;5047745;28;20442;-76
2023/01/14 05:24:03;;;;;;;19.57;3.47;;;;;;;;;;5026867;28;20037;-77
2023/01/14 05:26:29;;;;;;;25.50;3.80;;;;;;;;;;5026795;28;20033;-76
2023/01/14 05:28:55;;;;;;;22.13;4.20;;;;;;;;;;5031609;28;20029;-76
2023/01/14 05:31:21;;;;;;;29.43;4.67;;;;;;;;;;5026746;28;20763;-77
2023/01/14 05:33:47;;;;;;;25.10;3.97;;;;;;;;;;5031204;28;20033;-77
2023/01/14 05:36:13;;;;;;;23.63;4.77;;;;;;;;;;5047303;28;20396;-77
2023/01/14 05:38:41;;;;;;;24.87;5.80;;;;;;;;;;5023033;28;20033;-77
2023/01/14 05:41:11;;;;;;;22.03;3.57;;;;;;;;;;5043034;28;20036;-76
2023/01/14 05:46:22;;;;;;;23.80;3.60;;;;;;;;;;5031152;28;20048;-77
2023/01/14 05:48:50;;;;;;;22.00;4.17;;;;;;;;;;5023266;28;20029;-77
2023/01/14 05:51:16;;;;;;;29.30;4.90;;;;;;;;;;5025263;28;20870;-77
2023/01/14 05:53:43;;;;;;;18.53;3.07;;;;;;;;;;5039040;28;20108;-77
2023/01/14 05:56:09;;;;;;;18.87;3.67;;;;;;;;;;5026484;28;20382;-77
2023/01/14 05:58:36;;;;;;;25.03;4.00;;;;;;;;;;5027024;28;20033;-77
2023/01/14 06:06:38;;;;;;;19.80;3.83;;;;;;;;;;5030928;28;20068;-77
2023/01/14 06:09:05;;;;;;;21.10;3.20;;;;;;;;;;5026146;28;20121;-77
2023/01/14 06:11:34;;;;;;;13.43;3.47;;;;;;;;;;5045612;28;20029;-78
2023/01/14 06:14:00;;;;;;;18.03;3.70;;;;;;;;;;5025774;28;20029;-77
2023/01/14 06:16:27;;;;;;;12.83;3.83;;;;;;;;;;5030180;28;20037;-77
2023/01/14 06:18:54;;;;;;;16.13;3.73;;;;;;;;;;5045517;28;20110;-76
2023/01/14 06:21:21;;;;;;;19.20;3.87;;;;;;;;;;5023875;28;20572;-77
2023/01/14 06:23:47;;;;;;;18.00;2.93;;;;;;;;;;5040156;28;20040;-77
2023/01/14 06:26:15;;;;;;;17.50;3.70;;;;;;;;;;5027147;28;20033;-78
2023/01/14 06:28:42;;;;;;;14.47;3.53;;;;;;;;;;5045665;28;20025;-76
2023/01/14 06:31:18;;;;;;;22.47;4.27;;;;;;;;;;5029430;28;20512;-77
2023/01/14 06:33:44;;;;;;;15.80;3.33;;;;;;;;;;5027932;28;20112;-78
2023/01/14 06:36:11;;;;;;;20.37;3.57;;;;;;;;;;5029520;28;20025;-76
2023/01/14 06:38:37;;;;;;;17.43;3.53;;;;;;;;;;5041015;28;20029;-77
2023/01/14 06:41:04;;;;;;;16.63;3.57;;;;;;;;;;5045617;28;20029;-77
2023/01/14 06:43:30;;;;;;;20.67;3.07;;;;;;;;;;5045907;28;20088;-78
2023/01/14 06:45:57;;;;;;;21.93;3.27;;;;;;;;;;5046475;28;20152;-78
2023/01/14 06:48:23;;;;;;;20.60;3.30;;;;;;;;;;5029728;28;20025;-77
2023/01/14 06:50:49;;;;;;;19.00;3.63;;;;;;;;;;5031249;28;20025;-77
2023/01/14 06:53:15;;;;;;;19.90;4.20;;;;;;;;;;5045410;28;20029;-78
2023/01/14 06:55:41;;;;;;;16.93;3.80;;;;;;;;;;5047395;28;20037;-78
2023/01/14 06:58:07;;;;;;;17.40;3.13;;;;;;;;;;5024171;28;20048;-77
2023/01/14 07:00:33;;;;;;;28.73;4.77;;;;;;;;;;5025166;28;21634;-77
2023/01/14 07:02:59;;;;;;;27.67;4.47;;;;;;;;;;5026876;28;20212;-77
2023/01/14 07:05:25;;;;;;;19.67;3.60;;;;;;;;;;5043467;28;20072;-76
2023/01/14 07:07:52;;;;;;;24.43;3.53;;;;;;;;;;5027533;28;21697;-77
2023/01/14 07:10:18;;;;;;;22.70;3.43;;;;;;;;;;5025302;28;20026;-76
2023/01/14 07:12:48;;;;;;;17.13;3.43;;;;;;;;;;5026823;28;20038;-76
2023/01/14 07:15:15;;;;;;;14.93;3.20;;;;;;;;;;5030548;28;20033;-77
2023/01/14 07:17:41;;;;;;;18.47;3.30;;;;;;;;;;5045325;28;20033;-77
2023/01/14 07:20:08;;;;;;;21.40;3.93;;;;;;;;;;5029334;28;20037;-76
2023/01/14 07:22:34;;;;;;;21.93;4.63;;;;;;;;;;5026490;28;20025;-77
2023/01/14 07:25:01;;;;;;;16.00;3.07;;;;;;;;;;5029137;28;20107;-77
2023/01/14 07:27:30;;;;;;;16.90;3.13;;;;;;;;;;5028313;28;20040;-78
2023/01/14 07:29:59;;;;;;;23.77;3.77;;;;;;;;;;5049520;28;20028;-78
2023/01/14 07:32:27;;;;;;;21.03;3.40;;;;;;;;;;5025856;28;20031;-77
2023/01/14 07:34:53;;;;;;;20.13;3.67;;;;;;;;;;5042275;28;20055;-77
2023/01/14 07:37:19;;;;;;;29.40;4.73;;;;;;;;;;5048206;28;20061;-78
2023/01/14 07:39:45;;;;;;;18.87;3.70;;;;;;;;;;5026052;28;20037;-77
2023/01/14 07:42:13;;;;;;;27.87;3.90;;;;;;;;;;5042356;28;20038;-79
2023/01/14 07:44:43;;;;;;;15.37;3.30;;;;;;;;;;5031226;28;20482;-76
2023/01/14 07:47:12;;;;;;;18.40;4.17;;;;;;;;;;5032545;28;20036;-76
2023/01/14 07:49:39;;;;;;;25.77;3.33;;;;;;;;;;5033146;28;20034;-79
2023/01/14 07:52:05;;;;;;;19.37;3.17;;;;;;;;;;5028529;28;20883;-77
2023/01/14 07:54:31;;;;;;;22.90;3.63;;;;;;;;;;5028049;28;20148;-77
2023/01/14 07:56:57;;;;;;;15.87;2.80;;;;;;;;;;5044637;28;20049;-78
2023/01/14 07:59:23;;;;;;;21.23;4.47;;;;;;;;;;5045843;28;20160;-79
2023/01/14 08:01:49;;;;;;;22.90;3.60;;;;;;;;;;5028098;28;20053;-78
2023/01/14 08:04:17;;;;;;;23.80;4.40;;;;;;;;;;5032270;28;20048;-79
2023/01/14 08:06:43;;;;;;;18.43;3.20;;;;;;;;;;5029521;28;20040;-77
2023/01/14 08:09:09;;;;;;;16.17;2.90;;;;;;;;;;5032168;28;20025;-78
2023/01/14 08:11:36;;;;;;;18.17;3.60;;;;;;;;;;5031422;28;20040;-78
2023/01/14 08:14:05;;;;;;;23.27;3.63;;;;;;;;;;5048327;28;20112;-79
2023/01/14 08:16:31;;;;;;;18.27;3.33;;;;;;;;;;5048768;28;20036;-79
2023/01/14 08:18:57;;;;;;;22.93;4.47;;;;;;;;;;5033026;28;20098;-79
2023/01/14 08:21:23;;;;;;;31.37;4.80;;;;;;;;;;5042410;28;20055;-78
2023/01/14 08:23:49;;;;;;;27.37;4.50;;;;;;;;;;5048917;28;20040;-79
2023/01/14 08:26:17;;;;;;;25.47;4.50;;;;;;;;;;5048744;28;20481;-78
2023/01/14 08:28:46;;;;;;;24.80;5.13;;;;;;;;;;5025531;28;20588;-77
2023/01/14 08:31:16;;;;;;;22.77;5.67;;;;;;;;;;5048541;28;20130;-76
2023/01/14 08:33:43;;;;;;;21.77;3.93;;;;;;;;;;5026859;28;20430;-77
2023/01/14 08:36:10;;;;;;;15.33;3.20;;;;;;;;;;5048058;28;20029;-77
2023/01/14 08:38:39;;;;;;;26.47;4.80;;;;;;;;;;5032011;28;20077;-79
2023/01/14 08:41:05;;;;;;;19.73;3.63;;;;;;;;;;5048596;28;20033;-79
2023/01/14 08:43:31;;;;;;;14.13;4.07;;;;;;;;;;5040468;28;20038;-80
2023/01/14 08:45:57;;;;;;;17.20;4.00;;;;;;;;;;5032561;28;20033;-78
2023/01/14 08:48:23;;;;;;;19.47;4.43;;;;;;;;;;5033529;28;20096;-77
2023/01/14 08:50:49;;;;;;;14.47;3.17;;;;;;;;;;5046700;28;20021;-79
2023/01/14 08:53:15;;;;;;;12.43;2.10;;;;;;;;;;5032746;28;20091;-78
2023/01/14 08:55:41;;;;;;;10.13;2.40;;;;;;;;;;5033343;28;20354;-78
2023/01/14 08:58:08;;;;;;;18.80;2.93;;;;;;;;;;5032286;28;20080;-79
2023/01/14 09:00:34;;;;;;;17.17;2.67;;;;;;;;;;5047363;28;20060;-75
2023/01/14 09:03:00;;;;;;;10.83;2.23;;;;;;;;;;5047804;28;20025;-77
2023/01/14 09:05:26;;;;;;;9.07;1.83;;;;;;;;;;5047050;28;20041;-76
2023/01/14 09:18:56;;;;;;;7.20;1.20;;;;;;;;;;5032838;28;20044;-78
2023/01/14 09:21:23;;;;;;;1.53;0.50;;;;;;;;;;5051033;28;20025;-77
2023/01/14 09:23:50;;;;;;;7.90;1.30;;;;;;;;;;5026234;28;20474;-78
2023/01/14 09:26:16;;;;;;;4.97;1.00;;;;;;;;;;5042471;28;20725;-78
2023/01/14 09:28:41;;;;;;;3.70;1.37;;;;;;;;;;5032230;28;20036;-77
2023/01/14 09:31:07;;;;;;;5.27;1.23;;;;;;;;;;5025406;28;20029;-78
2023/01/14 09:33:33;;;;;;;3.90;0.93;;;;;;;;;;5028561;28;20045;-78
2023/01/14 09:36:00;;;;;;;4.13;1.30;;;;;;;;;;5029408;28;20040;-77
2023/01/14 09:38:28;;;;;;;3.80;0.90;;;;;;;;;;5033509;28;20033;-77
2023/01/14 09:40:55;;;;;;;5.67;1.00;;;;;;;;;;5033794;28;20037;-78
2023/01/14 09:43:21;;;;;;;5.57;0.90;;;;;;;;;;5025252;28;20848;-76
2023/01/14 09:45:55;;;;;;;4.53;0.90;;;;;;;;;;5031491;28;20049;-77
2023/01/14 09:48:22;;;;;;;5.20;0.87;;;;;;;;;;5024780;28;20109;-78
2023/01/14 09:51:04;;;;;;;7.03;1.27;;;;;;;;;;5047034;28;20029;-77
2023/01/14 09:53:32;;;;;;;4.60;1.02;;;;;;;;;;5040566;28;20108;-76
2023/01/14 09:56:02;;;;;;;2.83;0.80;;;;;;;;;;5030197;28;20025;-76
2023/01/14 09:58:38;;;;;;;1.77;0.63;;;;;;;;;;5046850;28;20036;-78
2023/01/14 10:01:39;;;;;;;5.90;0.80;;;;;;;;;;5028783;28;20477;-78
2023/01/14 10:04:17;;;;;;;2.80;0.70;;;;;;;;;;5023393;28;20037;-78
2023/01/14 10:06:44;;;;;;;4.17;0.80;;;;;;;;;;5030001;28;20480;-78
2023/01/14 10:09:13;;;;;;;6.00;1.10;;;;;;;;;;5031216;28;20037;-78
2023/01/14 10:11:43;;;;;;;4.73;1.10;;;;;;;;;;5024516;28;20359;-78
2023/01/14 10:14:15;;;;;;;3.77;0.90;;;;;;;;;;5030903;28;20044;-78
2023/01/14 10:16:42;;;;;;;6.07;1.43;;;;;;;;;;5042705;28;20040;-76
2023/01/14 10:19:11;;;;;;;5.47;0.90;;;;;;;;;;5046529;28;20158;-78
2023/01/14 10:21:47;;;;;;;3.57;1.13;;;;;;;;;;5028301;28;20040;-77
2023/01/14 10:24:14;;;;;;;3.53;0.80;;;;;;;;;;5041752;28;20032;-77
2023/01/14 10:26:40;;;;;;;4.00;1.00;;;;;;;;;;5026229;28;20099;-78
2023/01/14 10:29:16;;;;;;;2.73;0.87;;;;;;;;;;5039619;28;20039;-77
2023/01/14 10:31:47;;;;;;;4.57;1.20;;;;;;;;;;5046897;28;20158;-77
2023/01/14 10:34:17;;;;;;;3.77;0.83;;;;;;;;;;5030969;28;20029;-78
2023/01/14 10:36:43;;;;;;;4.93;1.00;;;;;;;;;;5047758;28;20026;-78
2023/01/14 10:39:10;;;;;;;4.77;0.77;;;;;;;;;;5025363;28;20049;-78
2023/01/14 10:41:48;;;;;;;3.60;0.77;;;;;;;;;;5030170;28;20037;-77
2023/01/14 10:44:19;;;;;;;6.70;0.97;;;;;;;;;;5040611;28;20149;-77
2023/01/14 10:46:45;;;;;;;6.43;1.30;;;;;;;;;;5024715;28;20048;-78
2023/01/14 10:49:22;;;;;;;3.80;0.93;;;;;;;;;;5030304;28;20026;-77
2023/01/14 10:51:50;;;;;;;4.27;1.20;;;;;;;;;;5040345;28;20033;-77
2023/01/14 10:54:20;;;;;;;7.80;1.50;;;;;;;;;;5039881;28;20079;-76
2023/01/14 10:56:53;;;;;;;5.00;1.43;;;;;;;;;;5025683;28;20034;-78
2023/01/14 10:59:22;;;;;;;3.47;1.60;;;;;;;;;;5023996;28;20469;-79
2023/01/14 11:01:48;;;;;;;6.20;1.30;;;;;;;;;;5039604;28;20033;-76
2023/01/14 11:04:17;;;;;;;5.43;1.27;;;;;;;;;;5030943;28;20034;-77
2023/01/14 11:06:44;;;;;;;5.20;1.50;;;;;;;;;;5039748;28;20063;-78
2023/01/14 11:09:18;;;;;;;4.10;1.30;;;;;;;;;;5037584;28;20033;-76
2023/01/14 11:11:48;;;;;;;7.63;1.40;;;;;;;;;;5030264;28;20021;-78
2023/01/14 11:14:19;;;;;;;5.87;1.30;;;;;;;;;;5045217;28;20033;-76
2023/01/14 11:16:45;;;;;;;6.30;1.10;;;;;;;;;;5039511;28;20064;-78
2023/01/14 11:19:21;;;;;;;6.43;1.00;;;;;;;;;;5040656;28;20041;-79
2023/01/14 11:21:52;;;;;;;3.83;1.23;;;;;;;;;;5039086;28;20045;-77
2023/01/14 11:24:28;;;;;;;5.47;1.23;;;;;;;;;;5046146;28;20879;-82
2023/01/14 11:27:14;;;;;;;6.93;1.50;;;;;;;;;;5029789;28;20075;-78
2023/01/14 11:29:52;;;;;;;15.30;1.57;;;;;;;;;;5045770;28;20038;-79
2023/01/14 11:32:24;;;;;;;5.17;0.90;;;;;;;;;;5046079;28;21786;-79
2023/01/14 11:34:52;;;;;;;7.47;1.67;;;;;;;;;;5044656;28;20365;-79
2023/01/14 11:37:20;;;;;;;2.83;1.07;;;;;;;;;;5027999;28;20084;-77
2023/01/14 11:39:51;;;;;;;7.27;0.97;;;;;;;;;;5025567;28;20457;-78
2023/01/14 11:42:29;;;;;;;9.20;1.47;;;;;;;;;;5032009;28;20175;-78
2023/01/14 11:44:58;;;;;;;6.77;1.23;;;;;;;;;;5041976;28;20056;-78
2023/01/14 11:47:26;;;;;;;5.10;1.13;;;;;;;;;;5030432;28;20042;-77
2023/01/14 11:50:11;;;;;;;4.60;1.10;;;;;;;;;;5027899;28;20025;-78
2023/01/14 11:52:39;;;;;;;5.87;0.90;;;;;;;;;;5027219;28;20045;-79
2023/01/14 11:55:12;;;;;;;3.40;0.80;;;;;;;;;;5030657;28;20033;-77
2023/01/14 11:57:39;;;;;;;2.10;0.80;;;;;;;;;;5024055;28;20361;-77
2023/01/14 12:00:06;;;;;;;3.40;0.70;;;;;;;;;;5039793;28;20454;-77
2023/01/14 12:02:39;;;;;;;5.23;1.43;;;;;;;;;;5039630;28;20045;-77
2023/01/14 12:05:11;;;;;;;4.47;0.57;;;;;;;;;;5045879;28;20037;-77
2023/01/14 12:07:39;;;;;;;4.65;0.82;;;;;;;;;;5040912;28;20040;-77
2023/01/14 12:10:15;;;;;;;2.93;0.83;;;;;;;;;;5041225;28;20353;-77
2023/01/14 12:18:28;;;;;;;2.03;0.70;;;;;;;;;;5033816;28;20032;-79
2023/01/14 12:20:54;;;;;;;2.87;0.60;;;;;;;;;;5028886;28;20029;-77
2023/01/14 12:23:22;;;;;;;11.60;0.83;;;;;;;;;;5046057;28;20122;-78
2023/01/14 12:25:49;;;;;;;4.27;0.90;;;;;;;;;;5032786;28;20059;-78
2023/01/14 12:28:20;;;;;;;3.27;1.37;;;;;;;;;;5048470;28;20025;-78
2023/01/14 12:30:51;;;;;;;1.67;0.60;;;;;;;;;;5033329;28;20028;-78
2023/01/14 12:33:36;;;;;;;3.30;0.70;;;;;;;;;;5028571;28;20056;-77
2023/01/14 12:36:05;;;;;;;3.03;0.77;;;;;;;;;;5030008;28;20029;-78
2023/01/14 12:46:57;;;;;;;2.97;0.77;;;;;;;;;;5033002;28;20111;-76
2023/01/14 12:49:23;;;;;;;3.23;0.80;;;;;;;;;;5042995;28;20450;-77
2023/01/14 12:51:49;;;;;;;2.77;0.53;;;;;;;;;;5027218;28;20049;-77
2023/01/14 12:54:24;;;;;;;3.20;0.80;;;;;;;;;;5034168;28;20022;-78
2023/01/14 12:56:54;;;;;;;1.60;0.80;;;;;;;;;;5029251;28;20449;-78
2023/01/14 12:59:20;;;;;;;0.70;0.40;;;;;;;;;;5044579;28;20029;-78
2023/01/14 13:01:51;;;;;;;2.70;0.60;;;;;;;;;;5050684;28;20030;-78
2023/01/14 13:04:19;;;;;;;2.77;0.77;;;;;;;;;;5046280;28;20168;-76
2023/01/14 13:06:46;;;;;;;5.30;0.60;;;;;;;;;;5042149;28;20025;-78
2023/01/14 13:09:22;;;;;;;2.70;0.70;;;;;;;;;;5027066;28;20033;-76
2023/01/14 13:11:50;;;;;;;2.07;0.50;;;;;;;;;;5043593;28;20095;-77
2023/01/14 13:14:19;;;;;;;1.03;0.40;;;;;;;;;;5048982;28;20034;-79
2023/01/14 13:16:45;;;;;;;4.07;0.67;;;;;;;;;;5033007;28;20033;-78
2023/01/14 13:19:27;;;;;;;3.80;0.60;;;;;;;;;;5027281;28;20042;-76
2023/01/14 13:21:56;;;;;;;2.03;0.63;;;;;;;;;;5029736;28;20094;-77
2023/01/14 13:24:28;;;;;;;1.37;0.47;;;;;;;;;;5047946;28;20357;-78
2023/01/14 13:26:55;;;;;;;1.38;0.57;;;;;;;;;;5049102;28;20111;-77
2023/01/14 13:29:26;;;;;;;4.90;0.67;;;;;;;;;;5043139;28;20034;-77
2023/01/14 13:31:53;;;;;;;1.27;0.40;;;;;;;;;;5041135;28;20087;-76
2023/01/14 13:34:19;;;;;;;2.67;0.90;;;;;;;;;;5033072;28;20036;-78
2023/01/14 13:36:46;;;;;;;3.03;1.30;;;;;;;;;;5033019;28;20053;-77
2023/01/14 13:39:18;;;;;;;1.47;0.50;;;;;;;;;;5025654;28;20052;-77
2023/01/14 13:41:45;;;;;;;1.20;0.60;;;;;;;;;;5042267;28;20032;-76
2023/01/14 13:44:30;;;;;;;5.23;1.40;;;;;;;;;;5032889;28;20077;-77
2023/01/14 13:46:56;;;;;;;3.40;0.70;;;;;;;;;;5030215;28;20036;-79
2023/01/14 13:49:27;;;;;;;0.93;0.50;;;;;;;;;;5048208;28;20028;-78
2023/01/14 13:51:57;;;;;;;1.27;0.40;;;;;;;;;;5048989;28;20045;-78
2023/01/14 13:54:27;;;;;;;0.83;0.40;;;;;;;;;;5032369;28;20080;-78
2023/01/14 13:57:08;;;;;;;1.20;0.50;;;;;;;;;;5028209;28;20017;-79
2023/01/14 13:59:36;;;;;;;1.50;0.40;;;;;;;;;;5027948;28;20070;-77
2023/01/14 14:02:02;;;;;;;2.00;1.07;;;;;;;;;;5041958;28;20032;-78
2023/01/14 14:04:47;;;;;;;1.63;0.47;;;;;;;;;;5030170;28;20033;-78
2023/01/14 14:07:32;;;;;;;1.87;0.70;;;;;;;;;;5026117;28;20040;-77
2023/01/14 14:10:00;;;;;;;1.17;0.53;;;;;;;;;;5043780;28;20025;-77
2023/01/14 14:15:22;;;;;;;2.40;0.40;;;;;;;;;;5032879;28;20086;-78
2023/01/14 14:17:51;;;;;;;1.17;0.50;;;;;;;;;;5025603;28;20025;-78
2023/01/14 14:20:18;;;;;;;1.97;0.97;;;;;;;;;;5027558;28;20030;-78
2023/01/14 14:22:47;;;;;;;1.60;0.60;;;;;;;;;;5028355;28;20114;-78
2023/01/14 14:25:27;;;;;;;1.40;0.37;;;;;;;;;;5032919;28;20094;-78
2023/01/14 14:27:54;;;;;;;2.23;0.83;;;;;;;;;;5047390;28;20473;-77
2023/01/14 14:30:26;;;;;;;2.67;0.87;;;;;;;;;;5032064;28;20033;-79
2023/01/14 14:32:52;;;;;;;2.30;0.80;;;;;;;;;;5047531;28;20049;-78
2023/01/14 14:35:20;;;;;;;1.80;0.73;;;;;;;;;;5040401;28;20142;-78
2023/01/14 14:37:47;;;;;;;1.50;0.77;;;;;;;;;;5048296;28;20224;-79
2023/01/14 14:40:24;;;;;;;1.23;0.67;;;;;;;;;;5025245;28;20775;-78
2023/01/14 14:42:50;;;;;;;1.67;0.57;;;;;;;;;;5025023;28;20025;-79
2023/01/14 14:45:26;;;;;;;2.27;0.47;;;;;;;;;;5039981;28;20029;-79
2023/01/14 14:47:52;;;;;;;2.30;0.93;;;;;;;;;;5030787;28;20108;-77
2023/01/14 14:50:37;;;;;;;3.07;0.60;;;;;;;;;;5023820;28;20049;-77
2023/01/14 14:53:03;;;;;;;1.20;0.40;;;;;;;;;;5044753;28;20033;-78
2023/01/14 14:55:37;;;;;;;2.10;0.40;;;;;;;;;;5047765;28;20022;-78
2023/01/14 14:58:05;;;;;;;3.30;0.60;;;;;;;;;;5041308;28;20037;-78
2023/01/14 15:00:34;;;;;;;2.03;0.70;;;;;;;;;;5039922;28;20122;-78
2023/01/14 15:03:04;;;;;;;1.37;0.50;;;;;;;;;;5024561;28;20060;-77
2023/01/14 15:05:32;;;;;;;1.67;0.60;;;;;;;;;;5047658;28;20045;-79
2023/01/14 15:08:00;;;;;;;1.37;0.60;;;;;;;;;;5047753;28;20037;-78
2023/01/14 15:10:29;;;;;;;2.60;0.93;;;;;;;;;;5027336;28;20026;-77
2023/01/14 15:12:55;;;;;;;1.10;0.70;;;;;;;;;;5026302;28;20021;-76
2023/01/14 15:15:28;;;;;;;5.20;0.63;;;;;;;;;;5047348;28;20022;-79
2023/01/14 15:17:58;;;;;;;1.67;0.50;;;;;;;;;;5031702;28;20033;-77
2023/01/14 15:20:24;;;;;;;2.20;0.50;;;;;;;;;;5031229;28;20103;-77
2023/01/14 15:22:51;;;;;;;1.43;0.70;;;;;;;;;;5046611;28;20053;-77
2023/01/14 15:25:18;;;;;;;2.93;0.57;;;;;;;;;;5031639;28;20457;-77
2023/01/14 15:27:45;;;;;;;1.33;0.40;;;;;;;;;;5031188;28;20392;-79